Time;durP1;ratioP1;P1;durP2;ratioP2;P2;SDS_P1;SDS_P2;PMS_P1;PMS_P2;Temp;Humidity;BMP_temperature;BMP_pressure;BME280_temperature;BME280_humidity;BME280_pressure;Samples;Min_cycle;Max_cycle;Signal;HPM_P1;HPM_P2
2023/06/09 00:02:01;;;;;;;5.78;5.15;;;;;;;21.35;32.69;100991.50;5068064;28;20159;-68
2023/06/09 00:04:33;;;;;;;6.85;5.50;;;;;;;21.35;32.39;100998.97;5050737;28;20148;-69
2023/06/09 00:07:02;;;;;;;6.57;5.57;;;;;;;21.29;32.69;100996.97;5048963;28;20430;-70
2023/06/09 00:09:30;;;;;;;6.57;5.50;;;;;;;21.29;32.79;100991.41;5069249;28;20060;-68
2023/06/09 00:11:59;;;;;;;6.18;5.22;;;;;;;21.26;32.99;100998.28;5067782;28;20607;-69
2023/06/09 00:14:26;;;;;;;6.80;5.50;;;;;;;21.24;33.01;100999.50;5084002;28;20135;-68
2023/06/09 00:16:55;;;;;;;5.88;4.93;;;;;;;21.21;32.92;101000.75;5067780;28;20045;-69
2023/06/09 00:19:24;;;;;;;7.10;5.45;;;;;;;21.19;33.12;100999.25;5069161;28;20036;-69
2023/06/09 00:21:53;;;;;;;6.38;5.65;;;;;;;21.18;33.39;100997.53;5049231;28;20052;-68
2023/06/09 00:24:23;;;;;;;6.85;5.70;;;;;;;21.13;33.06;100993.41;5068318;28;20148;-69
2023/06/09 00:26:52;;;;;;;7.03;5.63;;;;;;;21.11;33.12;100995.50;5067793;28;20056;-69
2023/06/09 00:29:22;;;;;;;6.93;5.57;;;;;;;21.08;33.12;100987.59;5068605;28;20064;-69
2023/06/09 00:31:50;;;;;;;6.10;5.30;;;;;;;21.04;33.30;100990.94;5066683;28;20147;-74
2023/06/09 00:34:18;;;;;;;6.43;5.43;;;;;;;21.00;33.01;100987.72;5050464;28;20059;-69
2023/06/09 00:36:46;;;;;;;6.50;5.47;;;;;;;20.97;33.14;100985.31;5048755;28;20485;-69
2023/06/09 00:39:15;;;;;;;7.25;5.68;;;;;;;20.98;33.16;100975.94;5068505;28;20050;-68
2023/06/09 00:41:43;;;;;;;6.28;5.38;;;;;;;20.93;33.13;100966.47;5048179;28;20106;-69
2023/06/09 00:44:12;;;;;;;6.13;5.25;;;;;;;20.89;33.05;100960.44;5068098;28;20072;-69
2023/06/09 00:46:40;;;;;;;6.57;5.60;;;;;;;20.87;33.22;100956.97;5096206;23;20044;-80
2023/06/09 00:49:09;;;;;;;6.47;5.63;;;;;;;20.85;33.16;100961.03;5076452;28;20036;-81
2023/06/09 00:51:38;;;;;;;6.43;5.60;;;;;;;20.83;33.10;100961.22;5073917;28;20230;-82
2023/06/09 00:54:07;;;;;;;7.47;6.18;;;;;;;20.82;33.50;100967.00;5084772;28;20043;-81
2023/06/09 00:56:38;;;;;;;6.85;5.43;;;;;;;20.81;33.49;100955.00;5088958;28;20053;-79
2023/06/09 00:59:09;;;;;;;6.50;5.22;;;;;;;20.76;33.65;100960.31;5059903;28;20041;-81
2023/06/09 01:01:37;;;;;;;7.13;5.80;;;;;;;20.74;33.54;100954.06;5075489;28;20032;-81
2023/06/09 01:04:05;;;;;;;7.57;5.72;;;;;;;20.71;33.84;100955.31;5063006;28;20044;-81
2023/06/09 01:06:47;;;;;;;7.10;5.97;;;;;;;20.71;33.80;100958.09;5059639;28;20120;-80
2023/06/09 01:09:21;;;;;;;7.57;5.70;;;;;;;20.67;34.15;100973.50;5075495;28;20040;-81
2023/06/09 01:12:01;;;;;;;6.90;5.63;;;;;;;20.64;33.89;100975.78;5060170;28;20586;-81
2023/06/09 01:14:37;;;;;;;6.35;5.30;;;;;;;20.60;33.79;100974.47;5074085;28;20076;-81
2023/06/09 01:17:09;;;;;;;6.32;5.43;;;;;;;20.56;34.00;100973.97;5059245;28;20040;-81
2023/06/09 01:19:41;;;;;;;6.45;5.63;;;;;;;20.50;33.55;100971.13;5078597;28;20045;-82
2023/06/09 01:22:17;;;;;;;6.28;5.40;;;;;;;20.51;34.10;100970.06;5077243;28;20713;-83
2023/06/09 01:24:53;;;;;;;6.60;4.85;;;;;;;20.47;33.79;100974.28;5076134;28;20496;-81
2023/06/09 01:27:25;;;;;;;6.10;5.20;;;;;;;20.45;34.05;100984.75;5057017;28;20478;-81
2023/06/09 01:29:53;;;;;;;7.70;5.95;;;;;;;20.37;34.02;100972.66;5087989;28;20048;-80
2023/06/09 01:32:23;;;;;;;6.30;5.65;;;;;;;20.36;33.73;100968.19;5083251;28;20472;-81
2023/06/09 01:34:53;;;;;;;6.18;5.40;;;;;;;20.33;33.78;100960.25;5060706;28;20071;-81
2023/06/09 01:37:22;;;;;;;6.65;5.22;;;;;;;20.28;34.29;100950.78;5075090;28;20095;-81
2023/06/09 01:39:50;;;;;;;6.40;5.50;;;;;;;20.27;33.94;100954.59;5058463;28;20052;-81
2023/06/09 01:42:18;;;;;;;5.78;5.18;;;;;;;20.23;34.32;100954.13;5073283;28;20057;-81
2023/06/09 01:44:48;;;;;;;6.22;5.25;;;;;;;20.25;34.37;100963.13;5060605;28;20064;-81
2023/06/09 01:47:18;;;;;;;5.93;5.32;;;;;;;20.20;34.31;100985.06;5077120;28;20148;-81
2023/06/09 01:49:54;;;;;;;6.60;5.55;;;;;;;20.20;34.37;100989.81;5062236;28;20044;-82
2023/06/09 01:52:27;;;;;;;6.93;5.80;;;;;;;20.15;34.47;100982.03;5077290;28;20112;-81
2023/06/09 01:54:59;;;;;;;6.57;5.35;;;;;;;20.14;34.41;100985.84;5061087;28;20048;-81
2023/06/09 01:57:32;;;;;;;6.93;5.43;;;;;;;20.10;34.74;100995.66;5077600;28;20098;-81
2023/06/09 02:00:04;;;;;;;5.90;5.13;;;;;;;20.09;34.67;100993.94;5058930;28;20102;-80
2023/06/09 02:02:42;;;;;;;6.38;5.43;;;;;;;20.05;34.78;100998.13;5073693;28;20131;-81
2023/06/09 02:05:13;;;;;;;6.07;5.47;;;;;;;20.02;34.50;101006.88;5052617;28;20043;-81
2023/06/09 02:07:44;;;;;;;6.70;5.72;;;;;;;19.99;34.78;101002.56;5051686;28;20059;-81
2023/06/09 02:10:12;;;;;;;5.80;5.15;;;;;;;19.96;34.43;101002.06;5069444;28;20056;-80
2023/06/09 02:12:40;;;;;;;6.93;5.63;;;;;;;19.91;34.60;100999.88;5054708;28;20495;-81
2023/06/09 02:15:10;;;;;;;7.53;5.93;;;;;;;19.91;34.48;100996.25;5068795;28;20055;-82
2023/06/09 02:17:39;;;;;;;7.32;5.97;;;;;;;19.84;34.59;100990.56;5055075;28;20060;-82
2023/06/09 02:20:10;;;;;;;6.68;5.70;;;;;;;19.81;34.65;100979.81;5053434;28;20083;-81
2023/06/09 02:22:39;;;;;;;7.15;5.80;;;;;;;19.75;35.16;100980.59;5072975;28;20396;-81
2023/06/09 02:25:08;;;;;;;8.38;6.10;;;;;;;19.75;35.47;100980.59;5069938;28;20617;-80
2023/06/09 02:27:37;;;;;;;6.78;5.63;;;;;;;19.73;35.02;100984.63;5067412;28;20112;-80
2023/06/09 02:30:06;;;;;;;6.47;5.75;;;;;;;19.72;35.08;100988.44;5066262;28;20052;-81
2023/06/09 02:32:37;;;;;;;7.53;6.07;;;;;;;19.71;35.18;100981.19;5065255;28;20083;-81
2023/06/09 02:35:06;;;;;;;7.32;6.07;;;;;;;19.65;35.26;100977.25;5053469;28;20076;-81
2023/06/09 02:37:35;;;;;;;6.78;5.68;;;;;;;19.63;35.53;100982.97;5052872;28;20122;-81
2023/06/09 02:40:04;;;;;;;7.45;6.10;;;;;;;19.63;35.33;100982.97;5070500;28;20078;-80
2023/06/09 02:42:32;;;;;;;6.90;6.05;;;;;;;19.60;35.20;100980.59;5072725;28;20108;-80
2023/06/09 02:45:00;;;;;;;7.88;6.35;;;;;;;19.59;35.47;100980.78;5071283;28;20044;-81
2023/06/09 02:47:28;;;;;;;7.72;5.82;;;;;;;19.57;35.65;100980.09;5070020;28;20032;-81
2023/06/09 02:49:58;;;;;;;7.57;5.95;;;;;;;19.57;35.69;100975.41;5055626;28;20041;-81
2023/06/09 02:52:28;;;;;;;7.55;6.10;;;;;;;19.54;35.53;100975.78;5056140;28;20048;-80
2023/06/09 02:54:56;;;;;;;7.78;5.93;;;;;;;19.52;35.98;100972.38;5075834;28;20044;-81
2023/06/09 02:57:25;;;;;;;6.63;5.93;;;;;;;19.51;35.88;100972.56;5057974;28;20056;-81
2023/06/09 02:59:53;;;;;;;6.50;5.70;;;;;;;19.48;35.75;100979.34;5061436;28;20059;-81
2023/06/09 03:02:23;;;;;;;7.45;6.05;;;;;;;19.46;35.75;100975.03;5059372;28;20120;-81
2023/06/09 03:04:52;;;;;;;9.68;5.72;;;;;;;19.43;35.69;100976.28;5075740;28;20068;-81
2023/06/09 03:07:21;;;;;;;7.07;5.63;;;;;;;19.42;36.10;100974.56;5057690;28;20047;-81
2023/06/09 03:09:50;;;;;;;6.75;6.05;;;;;;;19.36;36.39;100978.09;5064152;28;20518;-80
2023/06/09 03:12:18;;;;;;;7.80;6.07;;;;;;;19.35;36.04;100975.50;5057705;28;20064;-81
2023/06/09 03:14:46;;;;;;;6.53;5.85;;;;;;;19.32;35.97;100976.72;5064422;28;20216;-82
2023/06/09 03:17:17;;;;;;;7.05;5.80;;;;;;;19.30;36.04;100977.97;5055042;28;20561;-81
2023/06/09 03:19:45;;;;;;;6.07;5.47;;;;;;;19.29;36.00;100979.03;5055264;28;20094;-81
2023/06/09 03:22:13;;;;;;;6.82;6.10;;;;;;;19.27;36.37;100984.78;5075622;28;20072;-81
2023/06/09 03:24:44;;;;;;;7.00;6.20;;;;;;;19.27;36.24;100982.00;5059442;28;20200;-81
2023/06/09 03:27:13;;;;;;;6.13;5.50;;;;;;;19.23;36.25;100986.19;5057738;28;20075;-82
2023/06/09 03:29:41;;;;;;;6.47;5.40;;;;;;;19.23;35.96;100987.03;5059956;28;20147;-82
2023/06/09 03:32:09;;;;;;;6.63;5.53;;;;;;;19.21;36.36;100980.81;5074511;28;20507;-82
2023/06/09 03:34:40;;;;;;;7.03;5.80;;;;;;;19.21;36.49;100977.22;5063472;28;20040;-81
2023/06/09 03:37:12;;;;;;;7.85;5.90;;;;;;;19.20;36.38;100981.88;5072791;28;20095;-81
2023/06/09 03:39:40;;;;;;;6.40;5.80;;;;;;;19.19;36.68;100982.91;5075424;28;20044;-81
2023/06/09 03:42:11;;;;;;;8.13;6.22;;;;;;;19.20;36.56;100987.44;5058636;28;20151;-82
2023/06/09 03:44:39;;;;;;;7.78;6.25;;;;;;;19.18;36.20;100983.09;5075171;28;20391;-82
2023/06/09 03:47:09;;;;;;;7.50;6.05;;;;;;;19.16;36.73;100985.19;5073682;28;20051;-80
2023/06/09 03:49:38;;;;;;;6.80;6.05;;;;;;;19.16;36.76;100987.94;5057803;28;20057;-81
2023/06/09 03:52:07;;;;;;;8.18;5.93;;;;;;;19.15;36.57;100983.44;5082735;28;20674;-81
2023/06/09 03:54:37;;;;;;;6.30;5.47;;;;;;;19.13;36.70;100983.63;5083833;28;20486;-80
2023/06/09 03:57:05;;;;;;;7.07;6.30;;;;;;;19.12;36.64;100987.47;5079310;28;20052;-80
2023/06/09 03:59:35;;;;;;;6.90;6.18;;;;;;;19.14;36.60;100990.03;5082523;28;20033;-80
2023/06/09 04:02:03;;;;;;;6.97;5.78;;;;;;;19.12;36.34;100983.84;5066684;28;20045;-81
2023/06/09 04:04:31;;;;;;;7.40;6.60;;;;;;;19.11;36.81;100984.88;5084844;28;20108;-81
2023/06/09 04:07:00;;;;;;;6.40;5.78;;;;;;;19.10;36.87;100985.94;5084475;28;20053;-81
2023/06/09 04:09:28;;;;;;;6.50;5.80;;;;;;;19.10;36.66;100988.72;5085025;28;20044;-81
2023/06/09 04:11:56;;;;;;;7.63;6.15;;;;;;;19.10;36.62;100988.72;5082063;28;20044;-80
2023/06/09 04:14:24;;;;;;;6.35;5.72;;;;;;;19.09;37.08;100985.06;5064742;28;20100;-80
2023/06/09 04:16:55;;;;;;;8.13;6.75;;;;;;;19.11;37.10;100982.13;5084425;28;20056;-80
2023/06/09 04:19:24;;;;;;;7.25;5.95;;;;;;;19.07;37.46;100984.38;5049619;28;20037;-79
2023/06/09 04:21:52;;;;;;;6.95;5.90;;;;;;;19.09;37.24;100981.44;5062305;28;20458;-79
2023/06/09 04:24:21;;;;;;;6.93;6.22;;;;;;;19.09;37.10;100986.97;5063933;28;20051;-82
2023/06/09 04:26:53;;;;;;;7.47;6.50;;;;;;;19.08;37.00;100985.25;5062673;28;20064;-82
2023/06/09 04:29:23;;;;;;;8.07;6.50;;;;;;;19.08;37.40;100985.25;5065216;28;20110;-81
2023/06/09 04:31:58;;;;;;;7.43;6.32;;;;;;;19.08;37.39;100985.25;5061027;28;20079;-82
2023/06/09 04:34:38;;;;;;;6.82;6.07;;;;;;;19.10;37.28;100977.63;5078314;28;20451;-82
2023/06/09 04:37:08;;;;;;;7.70;6.68;;;;;;;19.07;37.37;100981.63;5057470;28;20578;-82
2023/06/09 04:39:36;;;;;;;8.43;6.72;;;;;;;19.08;37.34;100985.25;5063073;28;20102;-81
2023/06/09 04:42:07;;;;;;;7.57;6.30;;;;;;;19.08;37.30;100986.13;5069305;28;20124;-82
2023/06/09 04:44:35;;;;;;;7.97;6.60;;;;;;;19.09;37.65;100982.31;5057626;28;20049;-81
2023/06/09 04:47:05;;;;;;;7.85;7.00;;;;;;;19.10;37.34;100986.81;5072145;28;20064;-83
2023/06/09 04:49:35;;;;;;;7.07;6.38;;;;;;;19.13;37.73;100989.19;5065821;28;20102;-81
2023/06/09 04:52:03;;;;;;;6.78;6.07;;;;;;;19.13;37.82;100994.72;5062389;28;20049;-80
2023/06/09 04:54:33;;;;;;;8.20;6.72;;;;;;;19.16;37.95;100988.81;5081684;28;20035;-81
2023/06/09 04:57:08;;;;;;;7.45;6.60;;;;;;;19.15;37.88;100989.00;5077118;28;20127;-81
2023/06/09 04:59:36;;;;;;;8.88;6.68;;;;;;;19.19;37.80;100990.38;5065499;28;20040;-80
2023/06/09 05:02:05;;;;;;;8.00;6.65;;;;;;;19.22;37.97;100990.00;5082531;28;20049;-80
2023/06/09 05:04:36;;;;;;;7.88;6.32;;;;;;;19.27;37.88;101001.41;5076782;28;20041;-81
2023/06/09 05:07:06;;;;;;;8.50;6.40;;;;;;;19.35;38.13;101001.34;5061285;28;20064;-81
2023/06/09 05:09:34;;;;;;;7.45;6.30;;;;;;;19.45;38.26;100999.16;5053135;28;20139;-82
2023/06/09 05:12:02;;;;;;;8.35;6.30;;;;;;;19.59;38.08;100992.75;5054374;28;20047;-81
2023/06/09 05:14:31;;;;;;;7.15;6.30;;;;;;;19.77;38.43;101000.72;5068353;28;20064;-81
2023/06/09 05:17:02;;;;;;;7.65;6.50;;;;;;;19.99;38.18;101001.69;5056501;28;20057;-81
2023/06/09 05:19:30;;;;;;;7.60;6.80;;;;;;;20.22;38.23;101007.13;5061191;28;20040;-81
2023/06/09 05:21:59;;;;;;;7.50;6.70;;;;;;;20.52;37.63;100997.69;5058346;28;20048;-80
2023/06/09 05:24:27;;;;;;;8.10;6.90;;;;;;;20.77;37.26;101010.19;5056992;28;20040;-82
2023/06/09 05:26:55;;;;;;;7.60;6.82;;;;;;;21.06;37.00;101013.88;5066577;28;20083;-83
2023/06/09 05:29:24;;;;;;;9.45;6.70;;;;;;;21.33;36.25;101015.88;5071771;28;20040;-82
2023/06/09 05:31:52;;;;;;;10.70;7.35;;;;;;;21.58;36.10;101007.94;5067929;28;20059;-82
2023/06/09 05:34:21;;;;;;;7.43;6.50;;;;;;;21.85;36.10;101025.66;5067899;28;20060;-81
2023/06/09 05:36:49;;;;;;;6.78;5.90;;;;;;;22.09;35.80;101021.59;5053945;28;20140;-81
2023/06/09 05:39:18;;;;;;;6.93;5.63;;;;;;;22.36;35.16;101020.63;5071147;28;20111;-82
2023/06/09 05:41:46;;;;;;;6.50;5.63;;;;;;;22.56;34.93;101024.41;5069774;28;20106;-81
2023/06/09 05:44:14;;;;;;;7.07;5.80;;;;;;;22.79;34.75;101018.44;5071992;28;20040;-82
2023/06/09 05:46:42;;;;;;;7.30;5.97;;;;;;;23.01;34.40;101025.56;5068536;28;20119;-83
2023/06/09 05:49:10;;;;;;;6.35;5.75;;;;;;;23.21;34.37;101017.25;5063815;28;20044;-82
2023/06/09 05:51:38;;;;;;;6.15;5.55;;;;;;;23.40;33.93;101026.72;5057909;28;20131;-82
2023/06/09 05:54:07;;;;;;;7.13;5.88;;;;;;;23.57;33.46;101028.00;5067498;28;20119;-81
2023/06/09 05:56:37;;;;;;;7.90;6.20;;;;;;;23.74;33.23;101026.44;5076179;28;20044;-80
2023/06/09 05:59:09;;;;;;;6.90;5.93;;;;;;;23.85;33.14;101019.38;5079399;28;20032;-81
2023/06/09 06:01:37;;;;;;;6.75;6.05;;;;;;;23.97;33.03;101026.03;5065060;28;20051;-80
2023/06/09 06:04:05;;;;;;;6.57;5.82;;;;;;;24.09;32.92;101023.41;5074621;28;20092;-81
2023/06/09 06:06:34;;;;;;;6.85;5.72;;;;;;;24.19;32.79;101031.34;5066442;28;20094;-80
2023/06/09 06:09:04;;;;;;;6.75;5.95;;;;;;;24.28;33.02;101019.69;5051632;28;20514;-79
2023/06/09 06:11:32;;;;;;;6.93;6.22;;;;;;;24.38;32.48;101016.47;5053276;28;20040;-82
2023/06/09 06:14:01;;;;;;;7.00;5.47;;;;;;;24.50;32.35;101029.53;5071061;28;20509;-82
2023/06/09 06:16:29;;;;;;;6.82;5.75;;;;;;;24.59;32.39;101032.06;5069280;28;20052;-82
2023/06/09 06:18:58;;;;;;;5.95;5.35;;;;;;;24.69;31.90;101024.06;5053826;28;20139;-82
2023/06/09 06:21:25;;;;;;;6.57;5.68;;;;;;;24.78;32.09;101036.72;5070687;28;20086;-82
2023/06/09 06:23:54;;;;;;;6.38;5.78;;;;;;;24.87;31.88;101026.97;5071052;28;20136;-82
2023/06/09 06:26:22;;;;;;;6.47;5.82;;;;;;;24.97;31.72;101030.19;5051738;28;20052;-81
2023/06/09 06:28:50;;;;;;;6.60;5.43;;;;;;;25.06;31.09;101033.56;5072776;28;20495;-80
2023/06/09 06:31:20;;;;;;;5.93;5.30;;;;;;;25.18;31.07;101034.53;5073053;28;20129;-81
2023/06/09 06:33:48;;;;;;;6.22;5.28;;;;;;;25.23;31.11;101034.69;5058451;28;20586;-82
2023/06/09 06:36:21;;;;;;;6.85;5.80;;;;;;;25.33;30.88;101034.19;5075332;28;20462;-82
2023/06/09 06:38:49;;;;;;;6.53;5.50;;;;;;;25.40;30.94;101030.25;5076204;28;20106;-80
2023/06/09 06:41:17;;;;;;;5.68;5.10;;;;;;;25.48;30.66;101032.78;5072939;28;20067;-81
2023/06/09 06:43:45;;;;;;;5.90;5.30;;;;;;;25.58;30.44;101035.09;5057175;28;20492;-82
2023/06/09 06:46:15;;;;;;;5.90;5.15;;;;;;;25.64;30.34;101035.03;5056569;28;20060;-80
2023/06/09 06:48:45;;;;;;;5.90;5.00;;;;;;;25.76;29.88;101037.09;5056853;28;20048;-81
2023/06/09 06:51:13;;;;;;;6.53;5.35;;;;;;;25.81;30.13;101040.91;5073608;28;20203;-82
2023/06/09 06:53:41;;;;;;;6.65;5.47;;;;;;;25.88;29.99;101041.72;5075197;28;20044;-82
2023/06/09 06:56:09;;;;;;;7.13;5.97;;;;;;;25.95;29.94;101042.50;5071477;28;20466;-82
2023/06/09 06:58:37;;;;;;;5.90;5.30;;;;;;;26.01;29.58;101033.16;5074771;28;20075;-80
2023/06/09 07:01:05;;;;;;;7.10;5.53;;;;;;;26.08;29.82;101035.91;5074480;28;20084;-80
2023/06/09 07:03:35;;;;;;;5.78;5.18;;;;;;;26.14;29.81;101029.38;5078896;28;20056;-81
2023/06/09 07:06:05;;;;;;;6.05;5.35;;;;;;;26.24;29.54;101032.50;5075786;28;20102;-81
2023/06/09 07:08:33;;;;;;;6.50;5.35;;;;;;;26.30;29.40;101028.75;5073552;28;20068;-82
2023/06/09 07:11:01;;;;;;;5.93;5.32;;;;;;;26.37;29.51;101025.88;5074695;28;20075;-82
2023/06/09 07:13:29;;;;;;;5.90;4.78;;;;;;;26.45;29.38;101031.19;5075928;28;20492;-82
2023/06/09 07:16:00;;;;;;;6.05;5.07;;;;;;;26.51;28.95;101024.59;5072909;28;20048;-82
2023/06/09 07:18:28;;;;;;;7.00;5.10;;;;;;;26.58;29.17;101038.56;5058788;28;20067;-82
2023/06/09 07:20:56;;;;;;;5.28;4.72;;;;;;;26.66;28.58;101041.94;5074142;28;20128;-81
2023/06/09 07:23:26;;;;;;;5.70;5.10;;;;;;;26.77;28.83;101036.59;5057408;28;20051;-82
2023/06/09 07:25:53;;;;;;;5.75;4.93;;;;;;;26.81;28.76;101029.41;5056730;28;20108;-82
2023/06/09 07:28:21;;;;;;;4.90;4.40;;;;;;;26.87;28.61;101028.47;5053781;28;20509;-81
2023/06/09 07:30:50;;;;;;;5.75;4.97;;;;;;;26.96;28.41;101027.88;5057382;28;20056;-82
2023/06/09 07:33:19;;;;;;;5.68;4.65;;;;;;;27.04;28.44;101029.47;5074101;28;20094;-82
2023/06/09 07:35:48;;;;;;;5.47;4.43;;;;;;;27.09;28.23;101016.44;5073786;28;20094;-82
2023/06/09 07:38:17;;;;;;;5.85;4.82;;;;;;;27.20;28.24;101030.81;5075385;28;20360;-82
2023/06/09 07:40:47;;;;;;;5.15;4.53;;;;;;;27.29;27.72;101026.53;5071677;28;20056;-82
2023/06/09 07:43:15;;;;;;;5.25;4.60;;;;;;;27.33;27.86;101022.16;5083999;28;20040;-80
2023/06/09 07:45:42;;;;;;;5.07;4.57;;;;;;;27.39;27.63;101024.84;5084901;28;20048;-79
2023/06/09 07:48:12;;;;;;;5.53;4.65;;;;;;;27.47;27.62;101018.88;5068840;28;20048;-79
2023/06/09 07:50:39;;;;;;;6.00;4.80;;;;;;;27.55;27.39;101022.41;5071835;28;20084;-82
2023/06/09 07:53:27;;;;;;;5.65;4.75;;;;;;;27.61;26.90;101022.31;5056846;28;20518;-81
2023/06/09 07:55:58;;;;;;;4.68;4.18;;;;;;;27.71;27.00;101018.91;5055270;28;20134;-83
2023/06/09 07:58:26;;;;;;;5.28;4.68;;;;;;;27.74;27.12;101012.81;5082317;28;20218;-79
2023/06/09 08:00:54;;;;;;;5.30;4.78;;;;;;;27.82;26.81;101026.50;5054086;28;20053;-81
2023/06/09 08:03:22;;;;;;;5.00;4.03;;;;;;;27.90;26.14;101019.66;5072126;28;20528;-81
2023/06/09 08:05:50;;;;;;;6.00;4.35;;;;;;;27.96;26.37;101022.34;5051300;28;20551;-82
2023/06/09 08:08:18;;;;;;;4.82;4.30;;;;;;;28.01;26.47;101016.84;5082437;22;20068;-72
2023/06/09 08:10:46;;;;;;;5.40;4.68;;;;;;;28.07;25.90;101013.03;5017844;28;20049;-74
2023/06/09 08:13:15;;;;;;;5.38;4.32;;;;;;;28.16;26.10;101019.13;5022000;28;20056;-72
2023/06/09 08:15:45;;;;;;;5.20;4.70;;;;;;;28.18;25.53;101012.16;5011039;28;20053;-72
2023/06/09 08:18:13;;;;;;;5.47;4.80;;;;;;;28.23;25.57;101017.94;5017086;28;20492;-73
2023/06/09 08:20:41;;;;;;;5.40;4.90;;;;;;;28.28;25.48;101016.31;5013974;28;20046;-72
2023/06/09 08:23:08;;;;;;;5.00;4.50;;;;;;;28.31;25.10;101010.19;5019492;28;20036;-73
2023/06/09 08:25:37;;;;;;;5.78;4.50;;;;;;;28.33;25.31;101010.81;5023231;28;20167;-73
2023/06/09 08:28:09;;;;;;;5.55;4.80;;;;;;;28.34;25.01;101018.16;5016558;28;20045;-73
2023/06/09 08:30:38;;;;;;;5.50;4.90;;;;;;;28.38;24.54;101013.72;5015970;28;20429;-73
2023/06/09 08:33:06;;;;;;;5.68;4.88;;;;;;;28.37;24.89;101007.25;5018484;28;20052;-72
2023/06/09 08:35:34;;;;;;;5.32;4.60;;;;;;;28.37;25.01;101007.25;5016976;28;20077;-73
2023/06/09 08:38:02;;;;;;;5.93;4.93;;;;;;;28.39;25.22;101009.81;5016314;28;20060;-73
2023/06/09 08:40:30;;;;;;;5.05;4.55;;;;;;;28.40;25.02;101006.75;5013891;28;20057;-73
2023/06/09 08:43:00;;;;;;;5.53;4.80;;;;;;;28.46;25.23;101004.88;5019308;28;20053;-72
2023/06/09 08:45:30;;;;;;;5.38;4.88;;;;;;;28.47;24.85;101004.66;5015460;28;20500;-72
2023/06/09 08:48:02;;;;;;;5.30;4.55;;;;;;;28.52;24.66;101003.91;5016713;28;20038;-73
2023/06/09 08:50:32;;;;;;;5.30;4.57;;;;;;;28.52;24.89;101001.09;5014742;28;20061;-72
2023/06/09 08:53:01;;;;;;;5.20;4.70;;;;;;;28.55;24.47;101006.22;5012640;28;20092;-72
2023/06/09 08:55:30;;;;;;;5.95;5.07;;;;;;;28.57;24.42;101001.19;5015382;28;20061;-72
2023/06/09 08:57:58;;;;;;;5.20;4.60;;;;;;;28.59;24.50;100999.84;5012533;28;20050;-72
2023/06/09 09:00:26;;;;;;;5.20;4.70;;;;;;;28.62;24.71;100995.66;5019925;28;20049;-72
2023/06/09 09:02:56;;;;;;;5.45;4.95;;;;;;;28.64;24.48;100996.25;5018775;28;20037;-73
2023/06/09 09:05:25;;;;;;;5.28;4.65;;;;;;;28.70;24.82;100997.22;5014425;28;20432;-74
2023/06/09 09:07:53;;;;;;;5.18;4.57;;;;;;;28.71;24.50;100996.97;5021369;28;20137;-72
2023/06/09 09:10:21;;;;;;;5.10;4.60;;;;;;;28.74;24.07;100993.69;5015011;28;20088;-72
2023/06/09 09:12:50;;;;;;;5.50;4.85;;;;;;;28.81;24.16;100990.72;5015527;28;20148;-73
2023/06/09 09:15:18;;;;;;;5.07;4.38;;;;;;;28.84;24.14;100991.06;5016134;28;20076;-72
2023/06/09 09:17:47;;;;;;;4.88;4.25;;;;;;;28.90;24.20;100987.25;5020600;28;20258;-72
2023/06/09 09:20:16;;;;;;;5.53;4.22;;;;;;;28.93;23.31;100988.69;5017888;28;20092;-72
2023/06/09 09:22:50;;;;;;;5.78;4.57;;;;;;;29.01;22.84;100987.44;5019883;28;20112;-73
2023/06/09 09:25:22;;;;;;;4.65;4.18;;;;;;;29.04;22.60;100987.75;5014701;28;20045;-72
2023/06/09 09:28:07;;;;;;;5.07;4.25;;;;;;;29.04;22.06;100989.72;5013094;28;20128;-72
2023/06/09 09:30:47;;;;;;;7.05;4.03;;;;;;;29.12;22.03;100983.66;5015257;28;20049;-71
2023/06/09 09:33:18;;;;;;;4.30;3.78;;;;;;;29.15;22.74;100986.00;5016684;28;20038;-72
2023/06/09 09:35:49;;;;;;;4.65;3.80;;;;;;;29.17;22.62;100979.00;5013252;28;20106;-73
2023/06/09 09:38:21;;;;;;;4.15;3.60;;;;;;;29.24;21.58;100984.50;5018251;28;20078;-71
2023/06/09 09:40:50;;;;;;;5.32;3.85;;;;;;;29.27;21.81;100981.16;5013279;28;20492;-72
2023/06/09 09:43:19;;;;;;;4.97;3.90;;;;;;;29.30;21.29;100975.00;5017054;28;20575;-72
2023/06/09 09:45:49;;;;;;;4.03;3.45;;;;;;;29.34;21.50;100970.56;5016499;28;20046;-73
2023/06/09 09:48:21;;;;;;;5.05;4.07;;;;;;;29.38;21.62;100965.25;5014748;28;20088;-71
2023/06/09 09:50:51;;;;;;;5.03;4.28;;;;;;;29.40;21.54;100961.09;5014620;28;20144;-72
2023/06/09 09:53:23;;;;;;;4.00;3.47;;;;;;;29.48;21.55;100959.78;5019563;28;20492;-72
2023/06/09 09:55:53;;;;;;;4.22;3.60;;;;;;;29.50;21.24;100966.91;5017934;28;20145;-72
2023/06/09 09:58:29;;;;;;;3.92;3.47;;;;;;;29.57;20.79;100961.06;5015350;28;20042;-73
2023/06/09 10:00:59;;;;;;;4.05;3.50;;;;;;;29.60;21.38;100969.00;5013794;28;20058;-72
2023/06/09 10:03:28;;;;;;;4.70;3.70;;;;;;;29.62;20.52;100959.19;5012263;28;20076;-71
2023/06/09 10:05:59;;;;;;;5.28;3.25;;;;;;;29.67;20.59;100964.88;5011144;28;20591;-72
2023/06/09 10:08:30;;;;;;;3.95;3.22;;;;;;;29.73;20.44;100963.03;5013727;28;20041;-72
2023/06/09 10:11:00;;;;;;;4.07;3.38;;;;;;;29.79;20.76;100961.13;5012676;28;20053;-73
2023/06/09 10:13:28;;;;;;;4.28;3.50;;;;;;;29.83;20.79;100956.69;5034129;28;20080;-72
2023/06/09 10:15:57;;;;;;;3.70;3.10;;;;;;;29.87;20.67;100961.56;5016904;28;20049;-72
2023/06/09 10:18:25;;;;;;;4.50;3.42;;;;;;;29.92;20.72;100953.16;5015384;28;20099;-72
2023/06/09 10:20:55;;;;;;;4.32;3.63;;;;;;;29.99;20.53;100955.81;5013115;28;20050;-72
2023/06/09 10:23:23;;;;;;;5.03;3.67;;;;;;;30.02;20.86;100955.25;5012419;28;20038;-73
2023/06/09 10:25:53;;;;;;;4.22;3.80;;;;;;;30.10;20.19;100955.66;5018042;28;20136;-72
2023/06/09 10:28:21;;;;;;;4.72;3.67;;;;;;;30.12;20.16;100961.03;5011339;28;20077;-72
2023/06/09 10:30:50;;;;;;;4.57;4.05;;;;;;;30.18;19.94;100964.78;5013266;28;20045;-73
2023/06/09 10:33:21;;;;;;;4.80;3.47;;;;;;;30.21;20.10;100955.78;5011409;28;20132;-73
2023/06/09 10:35:50;;;;;;;5.47;3.80;;;;;;;30.18;19.83;100959.13;5015648;28;20055;-72
2023/06/09 10:38:23;;;;;;;4.18;3.58;;;;;;;30.23;19.77;100957.28;5011888;28;20038;-72
2023/06/09 10:41:00;;;;;;;5.28;4.03;;;;;;;30.20;19.65;100962.56;5013686;28;20073;-72
2023/06/09 10:43:51;;;;;;;4.57;3.65;;;;;;;30.16;19.36;100947.28;5012449;28;20050;-72
2023/06/09 10:46:38;;;;;;;4.18;3.50;;;;;;;30.09;19.90;100958.72;5015943;28;20053;-73
2023/06/09 10:49:06;;;;;;;4.45;3.30;;;;;;;30.04;19.77;100956.72;5017255;28;20037;-71
2023/06/09 10:51:45;;;;;;;4.25;3.45;;;;;;;30.07;19.54;100959.03;5008567;28;20157;-74
2023/06/09 10:54:26;;;;;;;4.43;3.53;;;;;;;30.05;19.64;100949.97;5011659;28;20153;-71
2023/06/09 10:57:00;;;;;;;5.33;3.83;;;;;;;30.00;20.04;100947.03;5012906;28;20045;-73
2023/06/09 11:00:11;;;;;;;4.55;3.65;;;;;;;29.94;20.31;100945.28;5015840;28;20292;-73
2023/06/09 11:02:41;;;;;;;4.15;3.75;;;;;;;30.02;19.94;100941.16;5022623;28;20052;-72
2023/06/09 11:05:10;;;;;;;4.28;3.88;;;;;;;30.03;19.54;100938.06;5014356;28;20100;-72
2023/06/09 11:07:51;;;;;;;5.20;4.00;;;;;;;30.05;19.78;100941.50;5010558;28;20042;-74
2023/06/09 11:10:29;;;;;;;4.22;3.45;;;;;;;30.06;20.17;100943.19;5014930;28;20056;-73
2023/06/09 11:12:59;;;;;;;4.55;3.90;;;;;;;30.04;19.84;100930.47;5016137;28;20053;-71
2023/06/09 11:16:04;;;;;;;5.32;3.85;;;;;;;30.01;19.86;100926.19;5018861;28;20049;-72
2023/06/09 11:18:32;;;;;;;4.22;3.83;;;;;;;30.02;20.08;100929.84;5014465;28;20044;-72
2023/06/09 11:21:19;;;;;;;4.38;3.70;;;;;;;30.07;20.07;100930.81;5017060;28;20054;-74
2023/06/09 11:24:02;;;;;;;4.30;3.80;;;;;;;30.10;19.80;100927.44;5021945;28;20055;-72
2023/06/09 11:26:33;;;;;;;4.50;3.60;;;;;;;30.07;19.76;100919.50;5015693;28;20053;-74
2023/06/09 11:29:04;;;;;;;4.05;3.55;;;;;;;30.13;19.24;100923.25;5022664;28;20046;-72
2023/06/09 11:31:49;;;;;;;;;;;;;;;29.81;20.35;100917.47;5013499;28;20186;-74
2023/06/09 11:34:56;;;;;;;4.20;3.30;;;;;;;30.10;18.95;100915.28;5014690;28;20004;-72
2023/06/09 11:37:25;;;;;;;4.03;3.30;;;;;;;30.13;19.75;100916.75;5016506;28;20452;-72
2023/06/09 11:39:53;;;;;;;4.32;3.70;;;;;;;30.13;18.91;100909.13;5015070;28;20129;-73